• Join FlightAware (Why Join?)
  • Login
  • US Flag GB Flag 
12:20 EDT


 

Airport Tracker/Info


-or-


 

Live Flight TrackerFlight Track Log ✈ SWA2166 ✈ 20-Apr-2013 ✈ KPDX - KLAS

Flight Track Log - Related Links

Times and Time Zones

All times are in EDT time to prevent confusion due to time zone crossing. See the SWA2166 flight status page for this flight to view local times or setup timezone preferences in your user account.

Time Position Orientation Groundspeed Altitude Reporting Facility
EDT Latitude Longitude Course Direction KTS MPH feet Rate Location/Type
15:32 45.6128 -122.6581 294° West 185 213 2,300  Level Seattle Center
15:33 45.6439 -122.7381 299° West 260 299 4,500 3,000 Climbing Seattle Center
15:34 45.6672 -122.8336 289° West 266 306 8,500 3,600 Climbing Seattle Center
15:34 45.6617 -122.8564 251° West 269 310 9,200 3,000 Climbing Seattle Center
15:35 45.6017 -122.8847 198° South 321 369 11,500 2,940 Climbing Seattle Center
15:35 45.5825 -122.8731 157° South 323 372 12,200 2,820 Climbing Seattle Center
15:36 45.5153 -122.7622 131° Southeast 373 429 15,200 2,760 Climbing Seattle Center
15:37 45.4394 -122.6589 136° Southeast 376 433 17,800 2,640 Climbing Seattle Center
15:38 45.3589 -122.5494 136° Southeast 393 452 20,600 2,520 Climbing Seattle Center
15:39 45.2736 -122.4350 137° Southeast 415 478 23,000 2,160 Climbing Seattle Center
15:40 45.1844 -122.3139 136° Southeast 435 501 25,000 1,860 Climbing Seattle Center
15:41 45.0897 -122.1869 137° Southeast 456 525 26,800 1,800 Climbing Seattle Center
15:42 44.9733 -122.0919 150° Southeast 481 554 28,700 1,800 Climbing Seattle Center
15:43 44.8336 -121.9989 155° Southeast 492 566 30,500 1,560 Climbing Seattle Center
15:44 44.7078 -121.9142 154° Southeast 493 567 31,900 1,560 Climbing Seattle Center
15:45 44.5808 -121.8292 154° Southeast 511 588 33,700 1,680 Climbing Seattle Center
15:46 44.4514 -121.7444 155° Southeast 516 594 35,300 1,500 Climbing Seattle Center
15:47 44.3233 -121.6608 155° Southeast 513 590 36,800 1,440 Climbing Seattle Center
15:48 44.1950 -121.5786 155° Southeast 509 586 38,300 1,080 Climbing Seattle Center
15:49 44.0703 -121.4967 155° Southeast 503 579 39,000 300 Climbing Seattle Center
15:50 43.9208 -121.3997 155° Southeast 498 573 39,000  Level Seattle Center
15:51 43.7939 -121.3203 156° South 500 575 39,000  Level Seattle Center
15:52 43.6681 -121.2414 156° South 497 572 39,000  Level Seattle Center
15:53 43.5436 -121.1594 154° Southeast 496 571 39,000  Level Seattle Center
15:54 43.4186 -121.0811 156° South 494 568 39,000  Level Seattle Center
15:55 43.2944 -121.0036 156° South 491 565 39,000  Level Seattle Center
15:56 43.1686 -120.9269 156° South 494 568 39,000  Level Seattle Center
15:57 43.0403 -120.8619 160° South 493 567 39,000  Level Seattle Center
15:58 42.9103 -120.7992 161° South 493 567 39,000  Level Seattle Center
15:59 42.7800 -120.7336 160° South 496 571 39,000  Level Seattle Center
16:01 42.6533 -120.6703 160° South 487 560 39,000  Level Seattle Center
16:02 42.5242 -120.6075 160° South 491 565 39,000  Level Seattle Center
16:03 42.3939 -120.5425 160° South 496 571 39,000  Level Seattle Center
16:04 42.2656 -120.4797 160° South 490 564 39,000  Level Seattle Center
16:05 42.1383 -120.4169 160° South 486 559 39,000  Level Seattle Center
16:06 42.0106 -120.3556 160° South 485 558 39,000  Level Seattle Center
16:07 41.8833 -120.2944 160° South 485 558 39,000  Level Seattle Center
16:08 41.7553 -120.2331 160° South 487 560 39,000  Level Seattle Center
16:09 41.6267 -120.1711 160° South 488 562 39,000  Level Seattle Center
16:10 41.4978 -120.1097 160° South 490 564 39,000  Level Seattle Center
16:11 41.3681 -120.0492 161° South 492 566 39,000  Level Oakland Center
16:12 41.2403 -119.9842 159° South 492 566 39,000  Level Oakland Center
16:13 41.0992 -119.8717 149° Southeast 498 573 39,000  Level Seattle Center
16:14 40.9800 -119.7814 150° Southeast 494 568 39,000  Level Seattle Center
16:15 40.8633 -119.6872 149° Southeast 491 565 39,000  Level Seattle Center
16:16 40.7667 -119.6139 150° Southeast 494 568 39,000  Level Oakland Center
16:17 40.6267 -119.5036 149° Southeast 488 562 39,000  Level Oakland Center
16:18 40.5167 -119.4206 150° Southeast 489 563 39,000  Level Oakland Center
16:19 40.3972 -119.3294 150° Southeast 495 570 39,000  Level Oakland Center
16:20 40.2794 -119.2397 150° Southeast 490 564 39,000  Level Oakland Center
16:21 40.1611 -119.1500 150° Southeast 491 565 39,000  Level Oakland Center
16:22 40.0400 -119.0594 150° Southeast 499 574 39,000  Level Oakland Center
16:23 39.8958 -118.9517 150° Southeast 498 573 39,000  Level Oakland Center
16:24 39.7747 -118.8614 150° Southeast 501 577 39,000  Level Oakland Center
16:25 39.6542 -118.7706 150° Southeast 499 574 39,000  Level Oakland Center
16:26 39.5311 -118.6811 151° Southeast 501 577 39,000  Level Oakland Center
16:27 39.4247 -118.6033 151° Southeast 499 574 39,000  Level Oakland Center
16:28 39.2808 -118.4950 150° Southeast 499 574 39,000  Level Oakland Center
16:29 39.1611 -118.4089 151° Southeast 499 574 39,000  Level Oakland Center
16:30 39.0392 -118.3203 151° Southeast 500 575 39,000  Level Oakland Center
16:31 38.9183 -118.2322 150° Southeast 498 573 39,000 -300 Level Oakland Center
16:32 38.7975 -118.1464 151° Southeast 496 571 38,500 -720 Descending Oakland Center
16:33 38.6756 -118.0597 151° Southeast 499 574 37,600 -780 Descending Oakland Center
16:34 38.5525 -117.9706 150° Southeast 507 583 37,000 -300 Descending Oakland Center
16:35 38.4319 -117.8831 150° Southeast 503 579 37,000  Level Oakland Center
16:36 38.3106 -117.7972 151° Southeast 501 577 37,000  Level Oakland Center
16:37 38.1897 -117.7103 151° Southeast 501 577 37,000 -600 Level Oakland Center
16:38 38.0431 -117.6075 151° Southeast 508 585 35,900 -1,020 Descending Oakland Center
16:39 37.9217 -117.5217 151° Southeast 507 583 35,000 -960 Descending Oakland Center
16:40 37.8014 -117.4369 151° Southeast 504 580 34,000 -1,020 Descending Oakland Center
16:41 37.6806 -117.3522 151° Southeast 501 577 33,000 -720 Descending Oakland Center
16:42 37.6331 -117.3189 151° Southeast 495 570 33,000  Level Los Angeles Center
16:42 37.5592 -117.2703 152° Southeast 499 574 33,000  Level Oakland Center
16:43 37.4353 -117.1842 151° Southeast 510 587 33,000  Level Oakland Center
16:44 37.3114 -117.0975 151° Southeast 511 588 33,000  Level Oakland Center
16:45 37.2364 -117.0456 151° Southeast 512 589 33,000  Level Los Angeles Center
16:46 37.1122 -116.9611 152° Southeast 508 585 33,000  Level Los Angeles Center
16:46 37.0369 -116.9094 151° Southeast 508 585 33,000 -120 Level Oakland Center
16:47 36.9136 -116.8258 152° Southeast 504 580 32,900 -840 Descending Oakland Center
16:48 36.8642 -116.7911 151° Southeast 508 585 31,800 -2,400 Descending Los Angeles Center
16:49 36.7553 -116.6844 142° Southeast 500 575 29,300 -2,340 Descending Los Angeles Center
16:50 36.6656 -116.5544 131° Southeast 493 567 27,000 -2,460 Descending Los Angeles Center
16:51 36.5611 -116.4053 131° Southeast 478 550 24,300 -2,340 Descending Los Angeles Center
16:52 36.4817 -116.2922 131° Southeast 456 525 22,200 -2,040 Descending Los Angeles Center
16:53 36.3967 -116.1711 131° Southeast 450 518 20,100 -2,220 Descending Los Angeles Center
16:53 36.3475 -116.1103 135° Southeast 442 509 18,800 -2,160 Descending Los Angeles Center
16:54 36.3156 -116.0564 126° Southeast 427 491 17,900 -1,980 Descending Los Angeles Center
16:55 36.2567 -115.9850 136° Southeast 423 487 16,400 -1,680 Descending Los Angeles Center
16:55 36.2397 -115.9517 122° Southeast 408 470 16,200 -660 Descending Los Angeles Center
16:56 36.1861 -115.8639 127° Southeast 370 426 15,700 -720 Descending Los Angeles Center
16:56 36.1822 -115.8369 100° East 368 423 15,500 -1,020 Descending Los Angeles Center
16:57 36.1519 -115.7525 114° Southeast 347 399 14,700 -1,080 Descending Los Angeles Center
16:57 36.1450 -115.7269 109° East 349 402 14,400 -900 Descending Los Angeles Center
16:58 36.1139 -115.6344 113° Southeast 325 374 13,700 -780 Descending Los Angeles Center
16:59 36.0925 -115.5350 105° East 279 321 13,000 -960 Descending Los Angeles Center
17:00 36.1064 -115.4483 79° East 265 305 11,800 -1,200 Descending Los Angeles Center
17:01 36.1231 -115.3656 76° East 265 305 10,700 -1,080 Descending Los Angeles Center
17:01 36.1267 -115.3456 77° East 265 305 10,500 -1,200 Descending Los Angeles Center
17:02 36.1383 -115.2861 76° East 258 297 9,600 -1,200 Descending Los Angeles Center
17:02 36.1447 -115.2606 73° East 260 299 9,300 -540 Descending Los Angeles Center
17:03 36.1575 -115.1947 76° East 249 287 9,000 -420 Descending Los Angeles Center
17:03 36.1650 -115.1628 74° East 249 287 8,900 -600 Descending Los Angeles Center
17:04 36.1656 -115.1228 89° East 213 245 8,400 -900 Descending Los Angeles Center
17:04 36.1561 -115.0958 113° Southeast 221 254 8,000 -480 Descending Los Angeles Center
17:05 36.1350 -115.0717 137° Southeast 201 231 8,000 -120 Level Los Angeles Center
17:05 36.1106 -115.0764 189° South 215 247 7,900 -120 Descending Los Angeles Center
17:06 36.0772 -115.0933 202° Southwest 196 226 7,900 60 Level Los Angeles Center
17:06 36.0586 -115.0994 195° South 200 230 8,000 60 Climbing Los Angeles Center
17:07 36.0278 -115.1150 202° Southwest 199 229 8,000  Level Los Angeles Center
17:07 36.0078 -115.1236 199° South 196 226 8,000 -540 Level Los Angeles Center
17:08 35.9750 -115.1403 202° Southwest 195 224 7,400 -1,020 Descending Los Angeles Center
17:08 35.9558 -115.1481 198° South 196 226 7,000 -840 Descending Los Angeles Center
17:09 35.9203 -115.1664 203° Southwest 196 226 6,600 -900 Descending Los Angeles Center
17:09 35.9078 -115.1753 210° Southwest 194 223 6,100 -1,140 Descending Los Angeles Center
17:10 35.9289 -115.2061 310° West 181 208 5,500 -600 Descending Los Angeles Center
17:10 35.9553 -115.2097 354° North 188 216 5,500  Level Los Angeles Center
17:11 35.9739 -115.2150 347° North 187 215 5,500 -120 Level Los Angeles Center
17:12 35.9986 -115.2175 355° North 184 212 5,400 -1,140 Descending Los Angeles Center
17:12 36.0319 -115.1933 30° Northeast 154 177 4,000 -1,860 Descending Los Angeles Center
17:13 36.0417 -115.1847 36° Northeast 178 205 3,500 -1,860 Descending Los Angeles Center
17:13 36.0564 -115.1772 22° Northeast 142 163 2,700 -1,260 Descending Los Angeles Center
17:14 36.0783 -115.1642 26° Northeast 160 184 2,200 -780 Descending Los Angeles Center
17:16 36.0801 -115.1523 122° Southeast  Level Estimated